Have a Safe July 4th! 

Flight Track Log - Related Links

Times and Time Zones

All times are in EDT time to prevent confusion due to time zone crossing. See the DAL1515 flight status page for this flight to view local times or setup timezone preferences in your user account.

Time Position Orientation Groundspeed Altitude Reporting Facility
EDT Latitude Longitude Course Direction KTS MPH feet Rate Location/Type
Wed 10:03:14 PM 33.6500 -84.4667 North 168 193 2,300  Level Atlanta TRACON
Wed 10:04:20 PM 33.6833 -84.5333 301° West 256 295 4,300 2,350 Climbing Atlanta TRACON
Wed 10:05:00 PM 33.8513 -84.1846 320° Northwest  Level FlightAware Approximate
Wed 10:05:14 PM 33.7333 -84.5833 320° Northwest 284 327 7,000  Level Atlanta TRACON
Wed 10:06:00 PM 33.9558 -84.2667 North  Level FlightAware Approximate
Wed 10:06:14 PM 33.8000 -84.5833 360° North 291 335 9,800  Level Atlanta TRACON
Wed 10:07:00 PM 34.0849 -84.2667 North  Level FlightAware Approximate
Wed 10:07:24 PM 33.8789 -84.4942 43° Northeast 312 359 10,800  Level Atlanta Center
Wed 10:08:00 PM 34.2141 -84.2667 North  Level FlightAware Approximate
Wed 10:09:24 PM 34.0653 -84.3547 32° Northeast 397 457 14,000  Level Atlanta Center
Wed 10:10:24 PM 34.1758 -84.3200 15° North 398 458 15,800 1,500 Climbing Atlanta Center
Wed 10:11:24 PM 34.2886 -84.2828 15° North 414 476 17,000 1,500 Climbing Atlanta Center
Wed 10:12:24 PM 34.4056 -84.2528 12° North 419 482 18,800 1,400 Climbing Atlanta Center
Wed 10:13:24 PM 34.5142 -84.2303 10° North 430 495 19,800 875 Climbing Atlanta Center
Wed 10:15:00 PM 34.7141 -84.1667 North  Level FlightAware Approximate
Wed 10:16:24 PM 34.8794 -84.1425 North 435 501 22,300  Level Atlanta Center
Wed 10:18:24 PM 35.1319 -84.0819 11° North 448 516 25,300 1,140 Climbing Atlanta Center
Wed 10:20:00 PM 35.3333 -84.0254 13° North  Level FlightAware Approximate
Wed 10:21:24 PM 35.4992 -83.9953 13° North 448 516 28,000  Level Atlanta Center
Wed 10:23:00 PM 35.6971 -83.9285 10° North  Level FlightAware Approximate
Wed 10:24:24 PM 35.8767 -83.8978 10° North 453 521 30,300  Level Atlanta Center
Wed 10:26:24 PM 36.1100 -83.7664 24° Northeast 447 514 31,000 233 Climbing Atlanta Center
Wed 10:27:24 PM 36.2372 -83.6836 28° Northeast 457 526 31,000  Level Atlanta Center
Wed 10:28:43 PM 36.3769 -83.5917 28° Northeast 463 533 31,000  Level Indianapolis Center
Wed 10:29:45 PM 36.4922 -83.5178 27° Northeast 467 537 31,000  Level Indianapolis Center
Wed 10:30:46 PM 36.6133 -83.4447 26° Northeast 474 545 31,000  Level Indianapolis Center
Wed 10:31:47 PM 36.7208 -83.3494 35° Northeast 475 547 31,000  Level Indianapolis Center
Wed 10:32:48 PM 36.8253 -83.2506 37° Northeast 470 541 31,000  Level Indianapolis Center
Wed 10:33:49 PM 36.9328 -83.1511 36° Northeast 474 545 31,000  Level Indianapolis Center
Wed 10:34:51 PM 37.0408 -83.0500 37° Northeast 475 547 31,000 537 Level Indianapolis Center
Wed 10:35:52 PM 37.1475 -82.9456 38° Northeast 478 550 32,100 1,082 Climbing Indianapolis Center
Wed 10:36:53 PM 37.2689 -82.8278 38° Northeast 469 540 33,200 1,082 Climbing Indianapolis Center
Wed 10:37:54 PM 37.3747 -82.7275 37° Northeast 472 543 34,300 829 Climbing Indianapolis Center
Wed 10:38:56 PM 37.4786 -82.6294 37° Northeast 465 535 34,900 341 Climbing Indianapolis Center
Wed 10:39:57 PM 37.5806 -82.5300 38° Northeast 462 532 35,000 49 Climbing Indianapolis Center
Wed 10:40:58 PM 37.6853 -82.4272 38° Northeast 472 543 35,000  Level Indianapolis Center
Wed 10:41:59 PM 37.7900 -82.3253 38° Northeast 473 544 35,000  Level Indianapolis Center
Wed 10:43:01 PM 37.8944 -82.2231 38° Northeast 473 544 35,000  Level Indianapolis Center
Wed 10:44:02 PM 38.0053 -82.1150 38° Northeast 470 541 35,000  Level Indianapolis Center
Wed 10:45:03 PM 38.1092 -82.0125 38° Northeast 472 543 35,000  Level Indianapolis Center
Wed 10:46:04 PM 38.2125 -81.9094 38° Northeast 473 544 35,000  Level Indianapolis Center
Wed 10:47:06 PM 38.3164 -81.8053 38° Northeast 475 547 35,000  Level Indianapolis Center
Wed 10:48:07 PM 38.4100 -81.6878 45° Northeast 475 547 35,000  Level Indianapolis Center
Wed 10:49:08 PM 38.4975 -81.5617 48° Northeast 478 550 35,000  Level Indianapolis Center
Wed 10:50:10 PM 38.6014 -81.4083 49° Northeast 484 557 35,000  Level Indianapolis Center
Wed 10:51:11 PM 38.6894 -81.2858 47° Northeast 479 551 35,000  Level Indianapolis Center
Wed 10:52:12 PM 38.7775 -81.1569 49° Northeast 483 556 35,000  Level Indianapolis Center
Wed 10:53:13 PM 38.8656 -81.0294 48° Northeast 483 556 35,000  Level Indianapolis Center
Wed 10:54:15 PM 38.9564 -80.8997 48° Northeast 488 562 35,000  Level Indianapolis Center
Wed 10:55:16 PM 39.0453 -80.7706 48° Northeast 485 558 35,000  Level Indianapolis Center
Wed 10:56:17 PM 39.1369 -80.6444 47° Northeast 484 557 35,000  Level Indianapolis Center
Wed 10:57:18 PM 39.2286 -80.5183 47° Northeast 483 556 35,000  Level Indianapolis Center
Wed 10:58:20 PM 39.3378 -80.3678 47° Northeast 481 554 35,000  Level Indianapolis Center
Wed 10:59:00 PM 39.3914 -80.2983 45° Northeast 475 547 35,000  Level Cleveland Center
Wed 11:00:00 PM 39.4828 -80.1717 47° Northeast 475 547 35,000  Level Cleveland Center
Wed 11:01:00 PM 39.5697 -80.0417 49° Northeast 475 547 35,000  Level Cleveland Center
Wed 11:01:59 PM 39.6586 -79.9064 49° Northeast 475 547 35,000  Level Cleveland Center
Wed 11:02:59 PM 39.7494 -79.7758 48° Northeast 480 552 35,000  Level Cleveland Center
Wed 11:03:59 PM 39.8381 -79.6422 49° Northeast 485 558 35,000  Level Cleveland Center
Wed 11:05:00 PM 39.9267 -79.5083 49° Northeast 490 564 35,000  Level Cleveland Center
Wed 11:06:00 PM 40.0128 -79.3769 49° Northeast 485 558 35,000  Level Cleveland Center
Wed 11:07:00 PM 40.0989 -79.2450 50° Northeast 485 558 35,000  Level Cleveland Center
Wed 11:07:59 PM 40.1869 -79.1156 48° Northeast 480 552 35,000  Level Cleveland Center
Wed 11:09:00 PM 40.2747 -78.9803 50° Northeast 480 552 35,000  Level Cleveland Center
Wed 11:10:00 PM 40.3625 -78.8475 49° Northeast 480 552 35,000  Level Cleveland Center
Wed 11:10:59 PM 40.4542 -78.7086 49° Northeast 486 559 35,000  Level Cleveland Center
Wed 11:12:52 PM 40.6250 -78.4444 50° Northeast 473 544 35,000  Level New York Center
Wed 11:13:51 PM 40.7131 -78.3092 49° Northeast 473 544 35,000  Level New York Center
Wed 11:14:52 PM 40.8006 -78.1761 49° Northeast 473 544 35,000  Level New York Center
Wed 11:15:52 PM 40.8883 -78.0400 50° Northeast 473 544 35,000 -99 Level New York Center
Wed 11:16:53 PM 40.9775 -77.9092 48° Northeast 473 544 34,800 -694 Descending New York Center
Wed 11:17:53 PM 41.0667 -77.7756 48° Northeast 479 551 33,600 -1,220 Descending New York Center
Wed 11:18:51 PM 41.1508 -77.6575 47° Northeast 491 565 32,400 -1,050 Descending New York Center
Wed 11:19:53 PM 41.2419 -77.5231 48° Northeast 491 565 31,500 -800 Descending New York Center
Wed 11:20:51 PM 41.3442 -77.3731 48° Northeast 491 565 30,800 -915 Descending New York Center
Wed 11:21:51 PM 41.4256 -77.2536 48° Northeast 491 565 29,700 -885 Descending New York Center
Wed 11:22:53 PM 41.5164 -77.1156 49° Northeast 491 565 29,000 -350 Descending New York Center
Wed 11:23:51 PM 41.6067 -76.9825 48° Northeast 486 559 29,000  Level New York Center
Wed 11:24:52 PM 41.6950 -76.8464 49° Northeast 486 559 29,000  Level New York Center
Wed 11:25:52 PM 41.7944 -76.6942 49° Northeast 486 559 29,000  Level New York Center
Wed 11:26:53 PM 41.8842 -76.5600 48° Northeast 486 559 29,000 -1,237 Level New York Center
Wed 11:29:06 PM 42.0794 -76.2642 48° Northeast 471 542 25,000 -1,554 Descending Boston Center
Wed 11:30:06 PM 42.1592 -76.1261 52° Northeast 471 542 24,000 -500 Descending Boston Center
Wed 11:31:06 PM 42.2103 -75.9639 67° East 459 528 24,000 -600 Level Boston Center
Wed 11:32:06 PM 42.2528 -75.7922 71° East 464 534 22,800 -1,400 Descending Boston Center
Wed 11:33:06 PM 42.2931 -75.6317 71° East 462 532 21,200 -1,450 Descending Boston Center
Wed 11:34:06 PM 42.3350 -75.4681 71° East 451 519 19,900 -850 Descending Boston Center
Wed 11:35:06 PM 42.3725 -75.3094 72° East 451 519 19,500 -1,050 Descending Boston Center
Wed 11:36:06 PM 42.4094 -75.1594 72° East 435 501 17,800 -1,850 Descending Boston Center
Wed 11:37:06 PM 42.4442 -75.0144 72° East 422 486 15,800 -1,750 Descending Boston Center
Wed 11:38:06 PM 42.4786 -74.8697 72° East 410 472 14,300 -1,515 Descending Boston Center
Wed 11:38:49 PM 42.5058 -74.7581 72° East 391 450 13,200 -1,500 Descending Boston Center
Wed 11:39:50 PM 42.5378 -74.6211 72° East 390 449 11,700 -1,091 Descending Boston Center
Wed 11:40:50 PM 42.5739 -74.4728 72° East 378 435 11,000 -843 Descending Boston Center
Wed 11:41:51 PM 42.6008 -74.3611 72° East 309 356 10,000 -1,461 Descending Boston Center
Wed 11:42:45 PM 42.6297 -74.2575 69° East 302 348 8,200 -1,617 Descending Boston Center
Wed 11:43:46 PM 42.6994 -74.2031 30° Northeast 290 334 6,900 -1,574 Descending Boston Center
Wed 11:44:47 PM 42.7669 -74.1428 33° Northeast 290 334 5,000 -1,488 Descending Boston Center
Wed 11:45:47 PM 42.8264 -74.0764 39° Northeast 262 302 3,900 -992 Descending Boston Center
Wed 11:46:48 PM 42.8733 -74.0011 50° Northeast 243 280 3,000 -475 Descending Boston Center
Wed 11:48:06 PM 42.9017 -73.8883 71° East 245 282 2,800 -472 Descending Boston Center
Wed 11:48:55 PM 42.8922 -73.8203 101° East 245 282 2,000 -980 Descending Boston Center

Login

Don't have an account? Register now (free) for customized features, flight alerts, and more!